Time;durP1;ratioP1;P1;durP2;ratioP2;P2;SDS_P1;SDS_P2;PMS_P1;PMS_P2;Temp;Humidity;BMP_temperature;BMP_pressure;BME280_temperature;BME280_humidity;BME280_pressure;Samples;Min_cycle;Max_cycle;Signal;HPM_P1;HPM_P2
2022/03/28 00:02:14;;;;;;;79.63;32.67;;;-1.80;69.70;;;;;;5054346;28;20029;-75
2022/03/28 00:04:39;;;;;;;74.68;34.03;;;-1.70;70.20;;;;;;5053044;28;20025;-75
2022/03/28 00:07:05;;;;;;;73.05;31.90;;;-1.70;71.10;;;;;;5053048;28;20056;-78
2022/03/28 00:09:30;;;;;;;73.45;29.58;;;-1.80;70.30;;;;;;5054318;28;20051;-78
2022/03/28 00:11:56;;;;;;;64.97;28.90;;;-1.80;69.80;;;;;;5054262;28;20059;-78
2022/03/28 00:14:22;;;;;;;66.35;28.85;;;-1.80;69.90;;;;;;5052961;28;20052;-77
2022/03/28 00:16:48;;;;;;;69.07;28.27;;;-1.80;71.00;;;;;;5054344;28;20470;-74
2022/03/28 00:19:13;;;;;;;65.13;28.35;;;-1.80;70.70;;;;;;5052883;28;20017;-74
2022/03/28 00:21:39;;;;;;;63.65;30.95;;;-1.80;70.70;;;;;;5054139;28;20032;-74
2022/03/28 00:24:05;;;;;;;74.82;29.90;;;-1.90;70.70;;;;;;5052579;28;20066;-74
2022/03/28 00:26:31;;;;;;;69.32;29.85;;;-1.90;70.50;;;;;;5052866;28;20489;-74
2022/03/28 00:28:57;;;;;;;83.32;34.40;;;-1.90;69.80;;;;;;5053972;28;20021;-78
2022/03/28 00:31:22;;;;;;;70.18;31.70;;;-1.90;69.40;;;;;;5052441;28;20463;-74
2022/03/28 00:33:48;;;;;;;69.97;28.30;;;-1.90;69.00;;;;;;5052629;28;20013;-78
2022/03/28 00:36:14;;;;;;;69.47;28.73;;;-1.90;68.90;;;;;;5052494;28;20025;-78
2022/03/28 00:38:40;;;;;;;65.38;29.58;;;-1.90;69.30;;;;;;5053743;28;20100;-75
2022/03/28 00:41:05;;;;;;;68.55;29.98;;;-1.90;69.40;;;;;;5053556;28;20025;-74
2022/03/28 00:43:31;;;;;;;60.45;28.00;;;-1.90;69.40;;;;;;5053523;28;20458;-77
2022/03/28 00:45:57;;;;;;;66.05;27.52;;;-1.90;69.40;;;;;;5053585;28;20104;-77
2022/03/28 00:48:26;;;;;;;62.25;28.17;;;-2.00;69.90;;;;;;5053381;28;20159;-78
2022/03/28 00:50:53;;;;;;;59.15;26.48;;;-2.00;70.20;;;;;;5053593;28;20108;-73
2022/03/28 00:53:19;;;;;;;56.75;28.27;;;-2.00;71.00;;;;;;5053453;28;20037;-73
2022/03/28 00:55:45;;;;;;;70.28;25.80;;;-2.00;70.30;;;;;;5052179;28;20013;-77
2022/03/28 00:58:11;;;;;;;51.58;24.50;;;-2.00;70.10;;;;;;5053184;28;20083;-73
2022/03/28 01:00:37;;;;;;;54.05;23.65;;;-2.10;70.00;;;;;;5052166;28;20024;-77
2022/03/28 01:03:03;;;;;;;59.15;25.45;;;-2.10;69.70;;;;;;5052097;28;20040;-77
2022/03/28 01:05:28;;;;;;;55.80;25.75;;;-2.10;69.70;;;;;;5053508;28;20428;-77
2022/03/28 01:07:55;;;;;;;60.15;27.92;;;-2.20;70.00;;;;;;5053358;28;20021;-75
2022/03/28 01:10:21;;;;;;;55.95;25.60;;;-2.20;70.70;;;;;;5052005;28;20108;-78
2022/03/28 01:12:47;;;;;;;56.33;25.80;;;-2.30;72.50;;;;;;5053218;28;20166;-77
2022/03/28 01:15:14;;;;;;;58.40;28.35;;;-2.40;73.90;;;;;;5053250;28;20025;-77
2022/03/28 01:20:29;;;;;;;55.53;24.95;;;-2.40;75.40;;;;;;5033050;28;20044;-74
2022/03/28 01:22:55;;;;;;;58.85;26.60;;;-2.40;75.70;;;;;;5033353;28;20025;-77
2022/03/28 01:25:24;;;;;;;49.38;24.95;;;-2.50;74.90;;;;;;5033136;28;20100;-74
2022/03/28 01:27:52;;;;;;;43.40;23.17;;;-2.50;73.50;;;;;;5033157;28;20033;-73
2022/03/28 01:30:22;;;;;;;46.10;23.52;;;-2.50;73.00;;;;;;5048615;28;20376;-77
2022/03/28 01:32:50;;;;;;;53.00;24.85;;;-2.50;72.80;;;;;;5048381;28;20037;-73
2022/03/28 01:35:32;;;;;;;54.75;27.08;;;-2.50;72.50;;;;;;5033149;28;20030;-74
2022/03/28 01:37:58;;;;;;;56.28;23.77;;;-2.40;72.20;;;;;;5031862;28;20083;-74
2022/03/28 01:40:24;;;;;;;58.67;26.58;;;-2.40;73.10;;;;;;5033040;28;20034;-77
2022/03/28 01:42:50;;;;;;;50.95;25.42;;;-2.40;72.50;;;;;;5048380;28;20032;-77
2022/03/28 01:45:18;;;;;;;62.85;27.63;;;-2.40;73.10;;;;;;5031763;28;20411;-78
2022/03/28 01:47:44;;;;;;;61.67;27.40;;;-2.40;73.50;;;;;;5032817;28;20052;-77
2022/03/28 01:50:10;;;;;;;56.00;26.00;;;-2.40;73.70;;;;;;5048260;28;20053;-77
2022/03/28 01:52:35;;;;;;;48.95;24.25;;;-2.40;73.90;;;;;;5034416;28;20037;-77
2022/03/28 01:55:01;;;;;;;59.65;26.23;;;-2.50;74.20;;;;;;5035581;28;20026;-74
2022/03/28 01:57:27;;;;;;;53.28;26.25;;;-2.50;74.40;;;;;;5035678;28;20022;-76
2022/03/28 01:59:53;;;;;;;50.00;24.30;;;-2.50;74.80;;;;;;5035603;28;20033;-74
2022/03/28 02:02:18;;;;;;;51.88;24.73;;;-2.50;75.70;;;;;;5052091;28;20120;-77
2022/03/28 02:04:44;;;;;;;58.85;27.35;;;-2.60;74.60;;;;;;5036854;28;20026;-77
2022/03/28 02:07:09;;;;;;;49.22;26.58;;;-2.60;73.80;;;;;;5036565;28;20034;-73
2022/03/28 02:09:35;;;;;;;57.78;27.02;;;-2.60;73.30;;;;;;5036864;28;20049;-74
2022/03/28 02:12:01;;;;;;;51.30;26.40;;;-2.60;73.10;;;;;;5036468;28;20087;-77
2022/03/28 02:14:26;;;;;;;57.53;27.98;;;-2.60;73.00;;;;;;5036597;28;20054;-77
2022/03/28 02:16:52;;;;;;;53.00;25.17;;;-2.60;72.60;;;;;;5036557;28;20491;-77
2022/03/28 02:19:18;;;;;;;54.78;26.80;;;-2.60;72.40;;;;;;5036431;28;20438;-78
2022/03/28 02:21:43;;;;;;;55.53;27.02;;;-2.60;72.50;;;;;;5035067;28;20391;-74
2022/03/28 02:24:09;;;;;;;53.80;26.23;;;-2.60;72.50;;;;;;5036356;28;20022;-75
2022/03/28 02:26:34;;;;;;;52.05;26.15;;;-2.60;72.20;;;;;;5051703;28;20021;-78
2022/03/28 02:29:00;;;;;;;53.60;24.83;;;-2.60;72.10;;;;;;5036351;28;20033;-78
2022/03/28 02:31:26;;;;;;;56.00;25.85;;;-2.60;72.10;;;;;;5036188;28;20022;-77
2022/03/28 02:33:51;;;;;;;55.95;25.85;;;-2.60;72.20;;;;;;5036218;28;20049;-77
2022/03/28 02:36:17;;;;;;;51.42;26.45;;;-2.60;72.80;;;;;;5036130;28;20029;-77
2022/03/28 02:38:42;;;;;;;55.05;24.85;;;-2.70;73.60;;;;;;5051586;28;20168;-74
2022/03/28 02:41:08;;;;;;;55.30;25.15;;;-2.70;74.00;;;;;;5036060;28;20017;-74
2022/03/28 02:43:34;;;;;;;52.92;24.92;;;-2.80;74.00;;;;;;5051372;28;20021;-77
2022/03/28 02:45:59;;;;;;;51.03;25.08;;;-2.80;74.30;;;;;;5035890;28;20039;-73
2022/03/28 02:48:25;;;;;;;53.78;25.83;;;-2.80;74.70;;;;;;5035773;28;20068;-77
2022/03/28 02:50:51;;;;;;;56.65;27.42;;;-2.80;75.60;;;;;;5036077;28;20022;-73
2022/03/28 02:53:17;;;;;;;52.95;27.70;;;-2.80;75.80;;;;;;5035772;28;20037;-77
2022/03/28 02:55:42;;;;;;;56.80;26.48;;;-2.90;75.90;;;;;;5035796;28;20364;-73
2022/03/28 02:58:08;;;;;;;60.50;29.48;;;-2.90;75.80;;;;;;5035762;28;20471;-73
2022/03/28 03:00:34;;;;;;;56.72;26.80;;;-2.90;75.70;;;;;;5051124;28;20593;-74
2022/03/28 03:03:00;;;;;;;63.60;27.17;;;-2.90;75.80;;;;;;5035286;28;20114;-73
2022/03/28 03:05:26;;;;;;;65.03;27.15;;;-2.90;75.70;;;;;;5034821;28;20017;-74
2022/03/28 03:07:52;;;;;;;66.22;27.77;;;-3.00;76.00;;;;;;5034325;28;20020;-77
2022/03/28 03:10:18;;;;;;;61.40;27.60;;;-3.00;76.00;;;;;;5035603;28;20041;-77
2022/03/28 03:12:43;;;;;;;59.65;27.80;;;-3.00;75.50;;;;;;5034156;28;20034;-73
2022/03/28 03:15:09;;;;;;;66.95;28.40;;;-3.00;75.30;;;;;;5034237;28;20053;-73
2022/03/28 03:17:38;;;;;;;58.45;29.52;;;-2.90;75.30;;;;;;5050761;28;20063;-78
2022/03/28 03:20:05;;;;;;;67.25;28.77;;;-3.00;75.40;;;;;;5050629;28;20020;-77
2022/03/28 03:22:31;;;;;;;57.95;27.38;;;-3.00;75.20;;;;;;5050619;28;20920;-73
2022/03/28 03:24:56;;;;;;;59.65;28.77;;;-3.00;75.20;;;;;;5035271;28;20025;-77
2022/03/28 03:27:22;;;;;;;64.45;29.52;;;-3.00;75.00;;;;;;5035334;28;20490;-78
2022/03/28 03:29:48;;;;;;;62.22;28.48;;;-3.00;75.00;;;;;;5035191;28;20056;-77
2022/03/28 03:32:14;;;;;;;66.00;28.73;;;-3.00;75.70;;;;;;5034821;28;20368;-77
2022/03/28 03:34:40;;;;;;;61.13;27.52;;;-3.00;76.40;;;;;;5050381;28;20052;-74
2022/03/28 03:37:07;;;;;;;61.05;28.83;;;-3.10;76.30;;;;;;5050429;28;20017;-74
2022/03/28 03:39:35;;;;;;;66.97;28.40;;;-3.10;76.20;;;;;;5034818;28;20052;-77
2022/03/28 03:42:01;;;;;;;60.90;27.13;;;-3.10;76.60;;;;;;5050251;28;20178;-74
2022/03/28 03:44:26;;;;;;;62.35;27.83;;;-3.10;76.60;;;;;;5033712;28;20049;-76
2022/03/28 03:46:52;;;;;;;49.63;26.40;;;-3.10;77.40;;;;;;5033645;28;20018;-76
2022/03/28 03:49:17;;;;;;;55.42;27.95;;;-3.10;77.20;;;;;;5034874;28;20052;-73
2022/03/28 03:51:44;;;;;;;57.78;27.85;;;-3.10;77.10;;;;;;5034572;28;20471;-72
2022/03/28 03:54:10;;;;;;;58.35;26.77;;;-3.10;76.80;;;;;;5034741;28;20049;-77
2022/03/28 03:56:37;;;;;;;57.78;26.90;;;-3.10;76.60;;;;;;5050000;28;20017;-76
2022/03/28 03:59:04;;;;;;;60.33;27.15;;;-3.10;77.10;;;;;;5033412;28;20117;-74
2022/03/28 04:01:29;;;;;;;63.35;26.80;;;-3.20;77.40;;;;;;5035820;28;20075;-73
2022/03/28 04:03:55;;;;;;;63.15;29.67;;;-3.20;77.20;;;;;;5053055;28;20383;-74
2022/03/28 04:06:22;;;;;;;52.90;24.83;;;-3.20;76.60;;;;;;5053095;28;20028;-74
2022/03/28 04:08:47;;;;;;;60.85;27.35;;;-3.20;76.70;;;;;;5054420;28;20049;-77
2022/03/28 04:11:13;;;;;;;55.13;27.40;;;-3.20;77.30;;;;;;5052987;28;20025;-74
2022/03/28 04:13:39;;;;;;;64.73;30.80;;;-3.20;77.40;;;;;;5054132;28;20037;-74
2022/03/28 04:16:05;;;;;;;61.63;28.35;;;-3.30;77.80;;;;;;5053756;28;20029;-74
2022/03/28 04:18:31;;;;;;;59.70;27.92;;;-3.20;78.90;;;;;;5052871;28;20029;-73
2022/03/28 04:20:57;;;;;;;62.13;29.27;;;-3.20;78.50;;;;;;5054107;28;20478;-75
2022/03/28 04:23:24;;;;;;;58.83;28.38;;;-3.20;79.00;;;;;;5052759;28;20028;-77
2022/03/28 04:25:51;;;;;;;59.50;29.27;;;-3.30;79.70;;;;;;5054015;28;20051;-77
2022/03/28 04:28:16;;;;;;;64.88;28.80;;;-3.30;79.50;;;;;;5054027;28;20401;-77
2022/03/28 04:30:42;;;;;;;64.18;29.80;;;-3.30;79.20;;;;;;5054098;28;20035;-77
2022/03/28 04:33:09;;;;;;;54.90;28.52;;;-3.30;79.00;;;;;;5053724;28;20168;-77
2022/03/28 04:35:39;;;;;;;63.63;28.65;;;-3.20;78.70;;;;;;5052452;28;20017;-77
2022/03/28 04:38:06;;;;;;;58.17;26.80;;;-3.20;79.00;;;;;;5053757;28;20027;-73
2022/03/28 04:40:33;;;;;;;58.97;26.80;;;-3.20;79.10;;;;;;5052469;28;20032;-74
2022/03/28 04:42:59;;;;;;;66.37;29.63;;;-3.30;79.90;;;;;;5052452;28;20032;-77
2022/03/28 04:45:25;;;;;;;70.87;31.70;;;-3.30;81.00;;;;;;5053464;28;20028;-77
2022/03/28 04:47:51;;;;;;;62.83;27.77;;;-3.30;81.10;;;;;;5039329;28;20430;-77
2022/03/28 04:50:16;;;;;;;62.13;28.97;;;-3.30;80.90;;;;;;5032462;28;20056;-76
2022/03/28 04:52:43;;;;;;;80.20;32.87;;;-3.20;80.30;;;;;;5032323;28;20513;-76
2022/03/28 04:55:09;;;;;;;69.27;32.30;;;-3.20;79.70;;;;;;5035884;28;20079;-74
2022/03/28 04:57:35;;;;;;;73.17;32.87;;;-3.20;79.80;;;;;;5032004;28;20044;-77
2022/03/28 05:00:00;;;;;;;64.50;27.90;;;-3.20;80.60;;;;;;5032246;28;20538;-77
2022/03/28 05:02:26;;;;;;;64.17;27.07;;;-3.20;81.90;;;;;;5051106;28;20024;-73
2022/03/28 05:04:52;;;;;;;66.70;31.92;;;-3.10;84.00;;;;;;5049995;28;20052;-77
2022/03/28 05:07:27;;;;;;;72.28;32.47;;;-3.10;85.10;;;;;;5053061;28;20033;-73
2022/03/28 05:09:53;;;;;;;63.63;31.63;;;-3.10;84.10;;;;;;5052058;28;20021;-77
2022/03/28 05:12:25;;;;;;;68.75;30.13;;;-3.10;83.50;;;;;;5053333;28;20478;-77
2022/03/28 05:14:52;;;;;;;69.72;31.83;;;-3.00;83.00;;;;;;5038319;28;20029;-77
2022/03/28 05:17:25;;;;;;;66.73;34.17;;;-2.90;83.20;;;;;;5045910;28;20123;-78
2022/03/28 05:19:51;;;;;;;76.32;33.03;;;-2.80;83.80;;;;;;5051979;28;20067;-77
2022/03/28 05:22:18;;;;;;;65.78;31.30;;;-2.80;84.10;;;;;;5050520;28;20507;-76
2022/03/28 05:24:43;;;;;;;81.07;35.75;;;-2.60;84.10;;;;;;5040370;28;20065;-76
2022/03/28 05:27:09;;;;;;;76.82;35.83;;;-2.60;84.30;;;;;;5030020;28;20480;-77
2022/03/28 05:29:34;;;;;;;137.48;57.88;;;-2.40;85.10;;;;;;5043151;28;20048;-74
2022/03/28 05:32:01;;;;;;;144.52;65.30;;;-2.40;84.60;;;;;;5052237;28;20033;-77
2022/03/28 05:34:30;;;;;;;165.98;75.32;;;-2.20;83.50;;;;;;5051635;28;20033;-77
2022/03/28 05:36:57;;;;;;;153.55;69.68;;;-2.10;82.80;;;;;;5049011;28;20017;-74
2022/03/28 05:39:23;;;;;;;132.95;62.17;;;-1.90;82.50;;;;;;5048628;28;20386;-76
2022/03/28 05:41:48;;;;;;;130.23;62.58;;;-1.80;82.10;;;;;;5062462;28;20029;-74
2022/03/28 05:44:14;;;;;;;130.50;57.38;;;-1.60;80.90;;;;;;5071594;28;20025;-75
2022/03/28 05:46:40;;;;;;;116.70;55.85;;;-1.50;79.60;;;;;;5072976;28;20099;-74
2022/03/28 05:49:05;;;;;;;111.97;52.30;;;-1.30;79.40;;;;;;5072913;28;20139;-74
2022/03/28 05:51:31;;;;;;;108.18;52.97;;;-1.10;78.90;;;;;;5071533;28;20131;-76
2022/03/28 05:53:56;;;;;;;129.75;62.55;;;-1.00;78.10;;;;;;5057712;28;20024;-77
2022/03/28 05:56:22;;;;;;;124.75;60.85;;;-0.80;78.00;;;;;;5041040;28;20018;-77
2022/03/28 05:58:48;;;;;;;147.93;73.53;;;-0.60;77.20;;;;;;5040275;28;20032;-77
2022/03/28 06:01:13;;;;;;;116.47;59.10;;;-0.30;76.10;;;;;;5042258;28;20025;-76
2022/03/28 06:03:39;;;;;;;114.85;57.50;;;-0.10;75.20;;;;;;5040528;28;20026;-75
2022/03/28 06:06:07;;;;;;;92.38;46.75;;;0.20;74.70;;;;;;5040589;28;20043;-76
2022/03/28 06:08:32;;;;;;;90.15;45.58;;;0.30;73.90;;;;;;5041723;28;20045;-74
2022/03/28 06:10:58;;;;;;;79.80;41.40;;;0.60;73.60;;;;;;5041565;28;20064;-76
2022/03/28 06:13:23;;;;;;;94.18;43.55;;;0.80;73.10;;;;;;5041674;28;20094;-75
2022/03/28 06:15:49;;;;;;;94.22;45.53;;;1.10;72.30;;;;;;5043052;28;20068;-76
2022/03/28 06:18:15;;;;;;;77.82;34.88;;;1.30;71.40;;;;;;5039654;28;20040;-77
2022/03/28 06:20:41;;;;;;;72.80;36.67;;;1.60;71.20;;;;;;5040986;28;20450;-75
2022/03/28 06:23:09;;;;;;;60.65;30.50;;;1.80;70.70;;;;;;5042443;28;20022;-75
2022/03/28 06:25:35;;;;;;;58.72;29.33;;;2.00;70.60;;;;;;5040547;28;20475;-76
2022/03/28 06:28:01;;;;;;;48.35;25.90;;;2.30;69.20;;;;;;5040538;28;20064;-75
2022/03/28 06:30:26;;;;;;;53.05;26.75;;;2.50;67.70;;;;;;5041080;28;20045;-78
2022/03/28 06:32:52;;;;;;;57.92;27.05;;;2.70;66.40;;;;;;5039618;28;20428;-75
2022/03/28 06:35:18;;;;;;;52.83;25.42;;;2.90;64.00;;;;;;5039801;28;20025;-78
2022/03/28 06:37:43;;;;;;;47.83;24.52;;;3.20;62.40;;;;;;5042984;28;20044;-78
2022/03/28 06:40:10;;;;;;;47.08;25.23;;;3.40;61.30;;;;;;5043582;28;20021;-78
2022/03/28 06:42:35;;;;;;;50.28;26.58;;;3.60;60.50;;;;;;5045289;28;20045;-75
2022/03/28 06:45:01;;;;;;;47.00;25.23;;;3.80;59.80;;;;;;5046393;28;20057;-74
2022/03/28 06:47:28;;;;;;;48.13;22.67;;;4.00;58.90;;;;;;5044016;28;20029;-76
2022/03/28 06:49:53;;;;;;;50.95;23.38;;;4.20;57.10;;;;;;5044028;28;20037;-76
2022/03/28 06:52:19;;;;;;;43.78;24.23;;;4.40;57.20;;;;;;5045570;28;20026;-77
2022/03/28 06:54:45;;;;;;;50.97;22.55;;;4.60;56.20;;;;;;5043062;28;20018;-75
2022/03/28 06:57:10;;;;;;;46.78;21.83;;;4.80;54.80;;;;;;5045639;28;20029;-74
2022/03/28 06:59:36;;;;;;;45.90;22.05;;;4.90;54.00;;;;;;5043116;28;20459;-76
2022/03/28 07:02:02;;;;;;;53.42;25.10;;;5.10;53.10;;;;;;5044977;28;20096;-76
2022/03/28 07:04:27;;;;;;;46.13;23.52;;;5.30;52.60;;;;;;5044638;28;20018;-74
2022/03/28 07:06:53;;;;;;;46.13;22.83;;;5.40;52.20;;;;;;5048323;28;20540;-74
2022/03/28 07:09:18;;;;;;;42.40;22.02;;;5.50;51.90;;;;;;5050417;28;20025;-74
2022/03/28 07:11:45;;;;;;;52.63;24.42;;;5.70;51.30;;;;;;5046937;28;20025;-74
2022/03/28 07:14:11;;;;;;;49.20;22.83;;;5.90;51.90;;;;;;5055348;28;20510;-74
2022/03/28 07:16:37;;;;;;;46.70;23.85;;;6.10;51.30;;;;;;5046179;28;20053;-77
2022/03/28 07:19:03;;;;;;;47.45;24.27;;;6.20;50.70;;;;;;5043532;28;20041;-81
2022/03/28 07:21:29;;;;;;;56.75;28.88;;;6.30;50.30;;;;;;5049295;28;20021;-79
2022/03/28 07:23:55;;;;;;;53.35;26.20;;;6.40;50.10;;;;;;5048936;28;20018;-79
2022/03/28 07:26:21;;;;;;;47.20;22.95;;;6.60;50.20;;;;;;5042424;28;20045;-80
2022/03/28 07:28:47;;;;;;;53.70;25.30;;;6.80;49.70;;;;;;5044388;28;20448;-79
2022/03/28 07:31:13;;;;;;;54.97;23.67;;;7.00;49.80;;;;;;5042404;28;20032;-80
2022/03/28 07:33:40;;;;;;;56.28;24.88;;;7.10;48.90;;;;;;5041079;28;20128;-79
2022/03/28 07:36:07;;;;;;;49.40;24.50;;;7.20;48.70;;;;;;5036229;28;20032;-80
2022/03/28 07:38:34;;;;;;;54.60;24.52;;;7.40;48.80;;;;;;5051352;28;20025;-80
2022/03/28 07:41:00;;;;;;;54.95;24.13;;;7.60;48.70;;;;;;5053624;28;20021;-77
2022/03/28 07:43:26;;;;;;;66.97;25.45;;;7.80;49.20;;;;;;5054987;28;20143;-80
2022/03/28 07:45:54;;;;;;;60.17;23.13;;;8.10;48.80;;;;;;5053563;28;20039;-80
2022/03/28 07:48:21;;;;;;;54.53;23.63;;;8.30;48.70;;;;;;5053320;28;20555;-77
2022/03/28 07:50:47;;;;;;;57.58;25.30;;;8.50;47.90;;;;;;5052677;28;20028;-77
2022/03/28 07:53:12;;;;;;;53.47;24.85;;;8.70;47.70;;;;;;5053189;28;20036;-80
2022/03/28 07:55:39;;;;;;;49.28;24.17;;;8.80;47.10;;;;;;5051277;28;20372;-77
2022/03/28 07:58:09;;;;;;;55.97;25.30;;;9.00;47.40;;;;;;5053373;28;20112;-78
2022/03/28 08:00:37;;;;;;;60.75;23.23;;;9.20;47.10;;;;;;5053567;28;20431;-81
2022/03/28 08:03:03;;;;;;;64.90;25.60;;;9.50;47.40;;;;;;5054520;28;20021;-81
2022/03/28 08:05:29;;;;;;;58.42;26.25;;;9.70;46.90;;;;;;5053245;28;20025;-77
2022/03/28 08:07:55;;;;;;;60.58;23.65;;;9.90;47.00;;;;;;5054513;28;20104;-76
2022/03/28 08:10:22;;;;;;;61.97;24.95;;;10.10;46.70;;;;;;5054559;28;20021;-81
2022/03/28 08:12:49;;;;;;;58.72;24.42;;;10.40;46.70;;;;;;5052848;28;20120;-77
2022/03/28 08:15:16;;;;;;;53.45;23.67;;;10.60;45.90;;;;;;5054362;28;20025;-78
2022/03/28 08:17:42;;;;;;;62.63;25.58;;;10.70;45.30;;;;;;5053094;28;20478;-81
2022/03/28 08:20:10;;;;;;;68.72;25.42;;;10.90;45.30;;;;;;5052858;28;20021;-81
2022/03/28 08:22:37;;;;;;;65.10;23.27;;;11.00;44.80;;;;;;5052794;28;20120;-77
2022/03/28 08:25:04;;;;;;;54.90;23.85;;;11.20;44.70;;;;;;5052912;28;20013;-77
2022/03/28 08:27:29;;;;;;;51.65;20.52;;;11.30;44.20;;;;;;5052846;28;20029;-81
2022/03/28 08:29:55;;;;;;;54.38;22.90;;;11.50;44.20;;;;;;5052888;28;20094;-80
2022/03/28 08:32:21;;;;;;;46.05;20.63;;;11.70;44.00;;;;;;5052613;28;20036;-77
2022/03/28 08:34:48;;;;;;;46.97;21.02;;;11.90;43.90;;;;;;5046429;28;20025;-79
2022/03/28 08:37:16;;;;;;;50.53;20.75;;;12.00;43.40;;;;;;5052573;28;20021;-81
2022/03/28 08:39:43;;;;;;;43.20;19.13;;;12.20;43.60;;;;;;5053782;28;20013;-82
2022/03/28 08:42:11;;;;;;;29.02;14.95;;;12.60;43.90;;;;;;5052464;28;20032;-77
2022/03/28 08:44:38;;;;;;;30.75;13.70;;;12.80;43.80;;;;;;5051129;28;20025;-82
2022/03/28 08:47:04;;;;;;;24.85;13.43;;;12.90;42.70;;;;;;5049567;28;20025;-77
2022/03/28 08:49:30;;;;;;;30.52;14.70;;;13.20;42.70;;;;;;5053487;28;20045;-75
2022/03/28 08:51:56;;;;;;;25.40;13.15;;;13.30;42.40;;;;;;5052331;28;20017;-75
2022/03/28 08:54:21;;;;;;;30.52;15.65;;;13.30;42.00;;;;;;5052441;28;20099;-80
2022/03/28 08:56:47;;;;;;;32.33;15.50;;;13.30;41.80;;;;;;5052360;28;20017;-79
2022/03/28 08:59:13;;;;;;;27.70;15.70;;;13.40;41.80;;;;;;5042966;28;20426;-75
2022/03/28 09:01:39;;;;;;;37.72;18.17;;;13.40;41.40;;;;;;5045964;28;20025;-80
2022/03/28 09:04:09;;;;;;;33.58;16.80;;;13.50;41.70;;;;;;5045247;28;20108;-79
2022/03/28 09:06:37;;;;;;;33.08;16.48;;;13.50;41.40;;;;;;5042292;28;20026;-75
2022/03/28 09:09:23;;;;;;;31.27;16.52;;;13.60;41.60;;;;;;5053317;28;20025;-80
2022/03/28 09:12:10;;;;;;;37.53;18.42;;;13.70;41.90;;;;;;5052019;28;20028;-74
2022/03/28 09:14:37;;;;;;;42.45;17.48;;;13.70;41.50;;;;;;5051758;28;20478;-80
2022/03/28 09:17:10;;;;;;;31.02;15.35;;;13.70;41.40;;;;;;5053265;28;20025;-74
2022/03/28 09:19:55;;;;;;;32.15;15.98;;;13.80;41.60;;;;;;5053375;28;20044;-80
2022/03/28 09:22:27;;;;;;;38.58;16.00;;;13.90;41.40;;;;;;5053267;28;20024;-80
2022/03/28 09:24:55;;;;;;;32.10;17.90;;;14.00;41.70;;;;;;5051940;28;20017;-74
2022/03/28 09:27:24;;;;;;;25.30;14.75;;;14.20;41.20;;;;;;5051862;28;20108;-79
2022/03/28 09:30:05;;;;;;;28.02;13.85;;;14.10;40.70;;;;;;5051929;28;20043;-79
2022/03/28 09:32:46;;;;;;;20.67;9.82;;;14.20;41.10;;;;;;5051700;28;20036;-80
2022/03/28 09:35:20;;;;;;;21.42;11.65;;;14.30;41.10;;;;;;5041338;28;20029;-75
2022/03/28 09:37:53;;;;;;;22.23;12.18;;;14.40;41.20;;;;;;5046091;28;20406;-75
2022/03/28 09:40:24;;;;;;;23.58;11.20;;;14.70;41.30;;;;;;5051612;28;20021;-80
2022/03/28 09:42:50;;;;;;;26.42;12.20;;;14.60;40.20;;;;;;5046607;28;20036;-76
2022/03/28 09:45:26;;;;;;;21.20;11.60;;;14.60;40.20;;;;;;5052952;28;20021;-77
2022/03/28 09:48:04;;;;;;;29.15;11.88;;;14.70;40.40;;;;;;5053033;28;20060;-77
2022/03/28 09:50:37;;;;;;;26.17;11.13;;;14.70;40.50;;;;;;5052931;28;20398;-76
2022/03/28 09:53:25;;;;;;;25.27;10.88;;;14.80;40.20;;;;;;5052109;28;20044;-76
2022/03/28 09:55:52;;;;;;;19.42;10.02;;;15.00;40.00;;;;;;5049519;28;20028;-77
2022/03/28 09:58:38;;;;;;;26.05;11.15;;;15.00;39.90;;;;;;5047245;28;20029;-78
2022/03/28 10:01:18;;;;;;;17.58;8.90;;;15.20;39.80;;;;;;5048515;28;20029;-79
2022/03/28 10:03:46;;;;;;;28.67;13.35;;;15.50;40.00;;;;;;5045582;28;20021;-79
2022/03/28 10:06:12;;;;;;;30.38;14.75;;;15.50;38.80;;;;;;5047501;28;20032;-79
2022/03/28 10:08:38;;;;;;;28.02;14.55;;;15.60;38.90;;;;;;5049416;28;20025;-79
2022/03/28 10:11:04;;;;;;;23.90;11.80;;;15.70;38.60;;;;;;5051524;28;20506;-79
2022/03/28 10:13:30;;;;;;;21.83;11.52;;;15.80;38.50;;;;;;5049560;28;20033;-79
2022/03/28 10:16:00;;;;;;;25.42;11.00;;;15.80;38.20;;;;;;5053159;28;20418;-79
2022/03/28 10:18:36;;;;;;;20.30;9.40;;;15.80;38.00;;;;;;5055182;28;20032;-79
2022/03/28 10:21:09;;;;;;;20.67;9.95;;;15.70;37.50;;;;;;5055164;28;20035;-79
2022/03/28 10:23:40;;;;;;;18.05;10.23;;;15.70;37.70;;;;;;5043599;28;20372;-79
2022/03/28 10:26:08;;;;;;;23.23;10.73;;;15.70;37.30;;;;;;5046513;28;20029;-80
2022/03/28 10:28:35;;;;;;;20.30;9.90;;;15.80;37.50;;;;;;5054123;28;20040;-80
2022/03/28 10:31:17;;;;;;;22.27;10.07;;;15.80;37.50;;;;;;5054240;28;20021;-80
2022/03/28 10:33:52;;;;;;;22.27;12.02;;;15.80;36.80;;;;;;5055567;28;20071;-80
2022/03/28 10:36:25;;;;;;;25.35;10.73;;;15.80;37.10;;;;;;5053620;28;20041;-80
2022/03/28 10:38:51;;;;;;;22.23;11.32;;;15.90;37.10;;;;;;5053212;28;20029;-79
2022/03/28 10:41:19;;;;;;;18.48;10.77;;;16.10;37.80;;;;;;5054054;28;20021;-79
2022/03/28 10:43:45;;;;;;;24.02;10.45;;;16.00;37.10;;;;;;5053861;28;20082;-79
2022/03/28 10:46:12;;;;;;;20.73;11.43;;;16.00;36.50;;;;;;5054004;28;20049;-79
2022/03/28 10:48:44;;;;;;;21.10;10.23;;;15.90;37.00;;;;;;5055177;28;20127;-79
2022/03/28 10:51:36;;;;;;;26.27;11.95;;;15.90;37.30;;;;;;5053981;28;20032;-79
2022/03/28 10:54:05;;;;;;;28.48;15.27;;;16.10;36.80;;;;;;5051434;28;20045;-79
2022/03/28 10:56:31;;;;;;;29.25;10.85;;;16.20;36.30;;;;;;5053661;28;20078;-79
2022/03/28 10:59:00;;;;;;;23.73;10.98;;;16.20;34.80;;;;;;5053588;28;20017;-79
2022/03/28 11:01:27;;;;;;;22.40;11.05;;;16.30;34.60;;;;;;5053414;28;20028;-79
2022/03/28 11:04:15;;;;;;;22.88;9.80;;;16.40;34.80;;;;;;5052795;28;20041;-79
2022/03/28 11:06:43;;;;;;;31.85;14.55;;;16.40;35.40;;;;;;5053491;28;20105;-79
2022/03/28 11:09:09;;;;;;;32.35;13.48;;;16.40;35.60;;;;;;5052812;28;20021;-79
2022/03/28 11:11:34;;;;;;;25.77;13.27;;;16.30;35.50;;;;;;5054950;28;20509;-79
2022/03/28 11:14:04;;;;;;;20.42;11.23;;;16.40;35.70;;;;;;5054109;28;20067;-79
2022/03/28 11:16:50;;;;;;;23.92;12.20;;;16.60;35.20;;;;;;5054195;28;20025;-80
2022/03/28 11:19:33;;;;;;;16.13;9.07;;;16.60;34.90;;;;;;5033712;28;20104;-80
2022/03/28 11:22:04;;;;;;;17.38;9.25;;;16.60;34.40;;;;;;5033305;28;20414;-80
2022/03/28 11:24:54;;;;;;;17.48;8.88;;;16.60;33.70;;;;;;5032454;28;20018;-80
2022/03/28 11:27:23;;;;;;;19.85;8.77;;;16.60;33.10;;;;;;5033262;28;20032;-79
2022/03/28 11:29:50;;;;;;;14.00;7.93;;;16.70;33.90;;;;;;5032651;28;20040;-79
2022/03/28 11:32:18;;;;;;;19.00;10.02;;;16.80;33.90;;;;;;5032682;28;20483;-79
2022/03/28 11:34:54;;;;;;;16.10;8.85;;;16.80;33.90;;;;;;5050297;28;20064;-80
2022/03/28 11:37:26;;;;;;;16.58;7.40;;;17.10;34.20;;;;;;5049679;28;20028;-79
2022/03/28 11:39:57;;;;;;;15.68;8.35;;;16.90;33.90;;;;;;5049450;28;20029;-79
2022/03/28 11:42:28;;;;;;;11.88;7.15;;;17.00;34.20;;;;;;5033419;28;20029;-79
2022/03/28 11:44:55;;;;;;;18.25;9.35;;;17.30;34.60;;;;;;5053972;28;20121;-78
2022/03/28 11:47:21;;;;;;;20.48;9.70;;;17.40;34.40;;;;;;5053820;28;20021;-79
2022/03/28 11:50:01;;;;;;;16.38;8.07;;;17.30;34.10;;;;;;5052127;28;20537;-79
2022/03/28 11:52:31;;;;;;;17.65;9.27;;;17.30;34.00;;;;;;5045762;28;20026;-79
2022/03/28 11:54:58;;;;;;;20.58;9.25;;;17.20;34.00;;;;;;5043918;28;20046;-79
2022/03/28 12:00:24;;;;;;;14.52;7.40;;;17.30;33.60;;;;;;5053489;28;20504;-80
2022/03/28 12:02:56;;;;;;;15.95;7.82;;;17.40;33.40;;;;;;5053682;28;20033;-80
2022/03/28 12:05:34;;;;;;;16.50;8.43;;;17.50;33.40;;;;;;5052120;28;20120;-79
2022/03/28 12:08:01;;;;;;;13.95;7.90;;;17.60;33.10;;;;;;5052344;28;20021;-79
2022/03/28 12:10:32;;;;;;;20.60;8.50;;;17.40;32.80;;;;;;5053114;28;20040;-79
2022/03/28 12:13:00;;;;;;;22.67;9.23;;;17.30;32.90;;;;;;5051675;28;20104;-79
2022/03/28 12:15:26;;;;;;;17.20;9.55;;;17.40;33.10;;;;;;5053176;28;20036;-79
2022/03/28 12:17:58;;;;;;;15.05;7.95;;;17.50;33.40;;;;;;5051908;28;20017;-79
2022/03/28 12:20:27;;;;;;;18.83;8.30;;;17.50;33.00;;;;;;5053138;28;20029;-79
2022/03/28 12:22:53;;;;;;;14.52;8.15;;;17.60;33.10;;;;;;5051980;28;20139;-79
2022/03/28 12:25:39;;;;;;;17.55;9.00;;;17.70;33.20;;;;;;5050770;28;20063;-78
2022/03/28 12:28:09;;;;;;;14.23;7.00;;;17.90;33.40;;;;;;5051204;28;20394;-78
2022/03/28 12:30:39;;;;;;;10.68;6.65;;;17.80;33.40;;;;;;5052661;28;20037;-78
2022/03/28 12:33:15;;;;;;;19.38;8.32;;;17.80;33.20;;;;;;5051842;28;20470;-81
2022/03/28 12:35:43;;;;;;;13.35;8.43;;;17.70;33.20;;;;;;5051318;28;20029;-81
2022/03/28 12:38:15;;;;;;;14.02;7.55;;;17.70;33.50;;;;;;5051815;28;20032;-81